createdAt,value
2017-01-11T00:00:23.794Z,1013.36
2017-01-11T00:01:04.544Z,1013.36
2017-01-11T00:01:45.179Z,1013.34
2017-01-11T00:02:25.872Z,1013.34
2017-01-11T00:03:06.542Z,1013.39
2017-01-11T00:03:47.180Z,1013.3
2017-01-11T00:04:27.851Z,1013.26
2017-01-11T00:05:08.481Z,1013.34
2017-01-11T00:05:49.121Z,1013.27
2017-01-11T00:06:29.841Z,1013.27
2017-01-11T00:07:10.494Z,1013.22
2017-01-11T00:07:51.179Z,1013.2
2017-01-11T00:08:31.819Z,1013.23
2017-01-11T00:09:12.452Z,1013.23
2017-01-11T00:09:53.141Z,1013.22
2017-01-11T00:10:33.788Z,1013.26
2017-01-11T00:11:14.494Z,1013.17
2017-01-11T00:11:55.147Z,1013.12
2017-01-11T00:12:35.788Z,1013.13
2017-01-11T00:13:16.439Z,1013.2
2017-01-11T00:13:57.075Z,1013.14
2017-01-11T00:14:37.710Z,1013.06
2017-01-11T00:15:18.413Z,1013
2017-01-11T00:15:59.057Z,1012.98
2017-01-11T00:16:39.705Z,1013.03
2017-01-11T00:17:21.257Z,1013.05
2017-01-11T00:18:01.942Z,1013.03
2017-01-11T00:18:42.586Z,1013
2017-01-11T00:19:23.297Z,1012.88
2017-01-11T00:20:03.990Z,1012.91
2017-01-11T00:20:44.622Z,1012.92
2017-01-11T00:21:25.321Z,1012.88
2017-01-11T00:22:05.957Z,1012.95
2017-01-11T00:22:46.646Z,1012.99
2017-01-11T00:23:27.279Z,1012.91
2017-01-11T00:24:08.036Z,1012.93
2017-01-11T00:24:48.698Z,1012.97
2017-01-11T00:25:29.333Z,1012.92
2017-01-11T00:26:10.069Z,1012.93
2017-01-11T00:26:50.731Z,1013.1
2017-01-11T00:27:31.402Z,1012.83
2017-01-11T00:28:12.051Z,1012.95
2017-01-11T00:28:52.682Z,1012.91
2017-01-11T00:29:33.387Z,1012.94
2017-01-11T00:30:14.019Z,1013.03
2017-01-11T00:30:54.719Z,1012.96
2017-01-11T00:31:35.389Z,1012.96
2017-01-11T00:32:16.026Z,1012.92
2017-01-11T00:32:56.757Z,1013.11
2017-01-11T00:33:37.487Z,1013.03
2017-01-11T00:34:18.209Z,1013.15
2017-01-11T00:34:58.850Z,1013.03
2017-01-11T00:35:39.549Z,1013.02
2017-01-11T00:36:20.193Z,1013.02
2017-01-11T00:37:00.820Z,1013.09
2017-01-11T00:37:41.493Z,1013.09
2017-01-11T00:38:22.158Z,1013.12
2017-01-11T00:39:02.793Z,1013.14
2017-01-11T00:39:43.484Z,1013.21
2017-01-11T00:40:24.163Z,1013.14
2017-01-11T00:41:04.882Z,1013.24
2017-01-11T00:41:45.533Z,1013.16
2017-01-11T00:42:26.288Z,1013.25
2017-01-11T00:43:06.920Z,1013.24
2017-01-11T00:43:47.553Z,1013.09
2017-01-11T00:44:28.224Z,1013.14
2017-01-11T00:45:08.921Z,1013.06
2017-01-11T00:45:49.574Z,1013.09
2017-01-11T00:46:30.244Z,1013.02
2017-01-11T00:47:10.879Z,1013.14
2017-01-11T00:47:51.533Z,1013
2017-01-11T00:48:32.162Z,1012.95
2017-01-11T00:49:12.798Z,1013.01
2017-01-11T00:49:53.462Z,1012.91
2017-01-11T00:50:34.103Z,1012.87
2017-01-11T00:51:14.821Z,1012.85
2017-01-11T00:51:55.489Z,1012.89
2017-01-11T00:52:36.124Z,1012.77
2017-01-11T00:53:16.832Z,1012.72
2017-01-11T00:53:57.499Z,1012.9
2017-01-11T00:54:38.132Z,1012.7
2017-01-11T00:55:18.861Z,1012.73
2017-01-11T00:55:59.534Z,1012.68
2017-01-11T00:56:40.229Z,1012.74
2017-01-11T00:57:20.818Z,1012.75
2017-01-11T00:58:01.498Z,1012.81
2017-01-11T00:58:42.161Z,1012.76
2017-01-11T00:59:22.808Z,1012.54
2017-01-11T01:00:03.450Z,1012.59
2017-01-11T01:00:44.142Z,1012.65
2017-01-11T01:01:24.782Z,1012.63
2017-01-11T01:02:05.476Z,1012.59
2017-01-11T01:02:46.157Z,1012.63
2017-01-11T01:03:26.789Z,1012.49
2017-01-11T01:04:07.512Z,1012.56
2017-01-11T01:04:48.290Z,1012.49
2017-01-11T01:05:29.005Z,1012.5
2017-01-11T01:06:09.634Z,1012.55
2017-01-11T01:06:50.329Z,1012.54
2017-01-11T01:07:30.993Z,1012.65
2017-01-11T01:08:11.626Z,1012.45
2017-01-11T01:08:52.301Z,1012.36
2017-01-11T01:09:32.945Z,1012.35
2017-01-11T01:10:13.572Z,1012.3
2017-01-11T01:10:54.281Z,1012.26
2017-01-11T01:11:34.913Z,1012.32
2017-01-11T01:12:15.569Z,1012.22
2017-01-11T01:12:56.214Z,1012.32
2017-01-11T01:13:36.882Z,1012.25
2017-01-11T01:14:17.543Z,1012.23
2017-01-11T01:14:58.192Z,1012.28
2017-01-11T01:15:38.833Z,1012.17
2017-01-11T01:16:19.521Z,1012.28
2017-01-11T01:17:00.147Z,1012.2
2017-01-11T01:17:40.880Z,1012.14
2017-01-11T01:18:21.583Z,1012.2
2017-01-11T01:19:02.218Z,1012.24
2017-01-11T01:19:42.940Z,1012.21
2017-01-11T01:20:23.628Z,1012.27
2017-01-11T01:21:04.330Z,1012.17
2017-01-11T01:21:44.969Z,1012.26
2017-01-11T01:22:25.674Z,1012.11
2017-01-11T01:23:06.399Z,1012.12
2017-01-11T01:23:47.024Z,1012.08
2017-01-11T01:24:27.688Z,1012.08
2017-01-11T01:25:08.320Z,1012.12
2017-01-11T01:25:48.947Z,1012.06
2017-01-11T01:26:29.625Z,1012.03
2017-01-11T01:27:10.297Z,1011.97
2017-01-11T01:27:50.954Z,1012.01
2017-01-11T01:28:31.598Z,1012.03
2017-01-11T01:29:12.268Z,1011.91
2017-01-11T01:29:52.930Z,1011.97
2017-01-11T01:30:33.573Z,1012.1
2017-01-11T01:31:14.210Z,1011.99
2017-01-11T01:31:54.912Z,1011.91
2017-01-11T01:32:35.548Z,1011.85
2017-01-11T01:33:16.252Z,1011.86
2017-01-11T01:33:56.918Z,1012.07
2017-01-11T01:34:37.553Z,1011.89
2017-01-11T01:35:18.278Z,1011.82
2017-01-11T01:35:58.960Z,1011.92
2017-01-11T01:36:39.661Z,1011.95
2017-01-11T01:37:20.310Z,1011.81
2017-01-11T01:38:01.013Z,1012.01
2017-01-11T01:38:41.646Z,1011.71
2017-01-11T01:39:22.280Z,1011.8
2017-01-11T01:40:02.987Z,1011.75
2017-01-11T01:40:43.647Z,1011.8
2017-01-11T01:41:24.291Z,1011.78
2017-01-11T01:42:05.022Z,1011.73
2017-01-11T01:42:45.684Z,1011.79
2017-01-11T01:43:26.339Z,1011.65
2017-01-11T01:44:06.969Z,1011.67
2017-01-11T01:44:47.664Z,1011.64
2017-01-11T01:45:28.360Z,1011.75
2017-01-11T01:46:09.008Z,1011.7
2017-01-11T01:46:49.711Z,1011.6
2017-01-11T01:47:30.388Z,1011.52
2017-01-11T01:48:11.008Z,1011.54
2017-01-11T01:48:51.674Z,1011.55
2017-01-11T01:49:32.338Z,1011.56
2017-01-11T01:50:12.977Z,1011.42
2017-01-11T01:50:53.705Z,1011.46
2017-01-11T01:51:34.371Z,1011.56
2017-01-11T01:52:15.038Z,1011.62
2017-01-11T01:52:55.681Z,1011.53
2017-01-11T01:53:36.340Z,1011.44
2017-01-11T01:54:17.007Z,1011.8
2017-01-11T01:54:57.645Z,1011.53
2017-01-11T01:55:38.359Z,1011.64
2017-01-11T01:56:19.029Z,1011.65
2017-01-11T01:56:59.663Z,1011.68
2017-01-11T01:57:40.313Z,1011.55
2017-01-11T01:58:20.979Z,1011.38
2017-01-11T01:59:01.623Z,1011.51
2017-01-11T01:59:42.313Z,1011.36
2017-01-11T02:00:22.987Z,1011.41
2017-01-11T02:01:03.645Z,1011.42
2017-01-11T02:01:44.308Z,1011.37
2017-01-11T02:02:25.031Z,1011.5
2017-01-11T02:03:05.663Z,1011.55
2017-01-11T02:03:46.299Z,1011.55
2017-01-11T02:04:27.009Z,1011.57
2017-01-11T02:05:07.680Z,1011.67
2017-01-11T02:05:48.310Z,1011.62
2017-01-11T02:06:28.979Z,1011.63
2017-01-11T02:07:09.643Z,1011.75
2017-01-11T02:07:50.277Z,1011.58
2017-01-11T02:08:30.983Z,1011.67
2017-01-11T02:09:11.703Z,1011.73
2017-01-11T02:09:52.399Z,1011.77
2017-01-11T02:10:33.046Z,1011.73
2017-01-11T02:11:13.737Z,1011.67
2017-01-11T02:11:54.403Z,1011.8
2017-01-11T02:12:35.044Z,1011.72
2017-01-11T02:13:15.700Z,1011.67
2017-01-11T02:13:56.379Z,1011.66
2017-01-11T02:14:37.011Z,1011.89
2017-01-11T02:15:17.711Z,1011.63
2017-01-11T02:15:58.414Z,1011.64
2017-01-11T02:16:39.124Z,1011.76
2017-01-11T02:17:19.762Z,1011.69
2017-01-11T02:18:00.507Z,1011.75
2017-01-11T02:18:41.165Z,1011.79
2017-01-11T02:19:21.799Z,1011.91
2017-01-11T02:20:02.496Z,1011.72
2017-01-11T02:20:43.187Z,1011.7
2017-01-11T02:21:23.868Z,1011.72
2017-01-11T02:22:04.510Z,1011.72
2017-01-11T02:22:45.146Z,1011.6
2017-01-11T02:23:25.795Z,1011.66
2017-01-11T02:24:06.440Z,1011.68
2017-01-11T02:24:47.083Z,1011.6
2017-01-11T02:25:27.771Z,1011.71
2017-01-11T02:26:08.395Z,1011.85
2017-01-11T02:26:49.112Z,1011.66
2017-01-11T02:27:29.775Z,1011.69
2017-01-11T02:28:10.402Z,1011.89
2017-01-11T02:28:51.073Z,1011.88
2017-01-11T02:29:31.758Z,1011.77
2017-01-11T02:30:12.381Z,1011.86
2017-01-11T02:30:53.069Z,1011.88
2017-01-11T02:31:33.808Z,1011.84
2017-01-11T02:32:14.531Z,1011.79
2017-01-11T02:32:55.166Z,1011.73
2017-01-11T02:33:35.839Z,1011.73
2017-01-11T02:34:16.509Z,1011.83
2017-01-11T02:34:57.145Z,1011.84
2017-01-11T02:35:37.812Z,1011.67
2017-01-11T02:36:18.471Z,1011.76
2017-01-11T02:36:59.101Z,1011.84
2017-01-11T02:37:39.815Z,1011.85
2017-01-11T02:38:20.478Z,1011.81
2017-01-11T02:39:01.132Z,1011.71
2017-01-11T02:39:41.813Z,1011.72
2017-01-11T02:40:22.444Z,1011.66
2017-01-11T02:41:03.163Z,1011.74
2017-01-11T02:41:43.806Z,1011.67
2017-01-11T02:42:24.491Z,1011.77
2017-01-11T02:43:05.165Z,1011.72
2017-01-11T02:43:45.796Z,1011.57
2017-01-11T02:44:26.454Z,1011.66
2017-01-11T02:45:07.205Z,1011.72
2017-01-11T02:45:47.858Z,1011.75
2017-01-11T02:46:28.476Z,1011.71
2017-01-11T02:47:09.109Z,1011.56
2017-01-11T02:47:49.779Z,1011.72
2017-01-11T02:48:30.415Z,1011.69
2017-01-11T02:49:11.092Z,1011.72
2017-01-11T02:49:51.770Z,1011.77
2017-01-11T02:50:32.415Z,1011.57
2017-01-11T02:51:13.038Z,1011.61
2017-01-11T02:51:53.732Z,1011.66
2017-01-11T02:52:34.363Z,1011.61
2017-01-11T02:53:15.068Z,1011.69
2017-01-11T02:53:55.744Z,1011.67
2017-01-11T02:54:36.391Z,1011.66
2017-01-11T02:55:17.105Z,1011.73
2017-01-11T02:55:57.778Z,1011.73
2017-01-11T02:56:38.439Z,1011.66
2017-01-11T02:57:19.127Z,1011.69
2017-01-11T02:57:59.766Z,1011.81
2017-01-11T02:58:40.468Z,1011.68
2017-01-11T02:59:21.106Z,1011.77
2017-01-11T03:00:01.793Z,1011.78
2017-01-11T03:00:42.475Z,1011.78
2017-01-11T03:01:23.110Z,1011.85
2017-01-11T03:02:03.832Z,1011.82
2017-01-11T03:02:44.508Z,1011.87
2017-01-11T03:03:25.163Z,1011.89
2017-01-11T03:04:05.786Z,1011.85
2017-01-11T03:04:46.430Z,1011.99
2017-01-11T03:05:27.090Z,1011.88
2017-01-11T03:06:07.725Z,1011.97
2017-01-11T03:06:48.429Z,1011.91
2017-01-11T03:07:29.122Z,1012.02
2017-01-11T03:08:09.759Z,1012.01
2017-01-11T03:08:50.458Z,1012.02
2017-01-11T03:09:31.127Z,1011.95
2017-01-11T03:10:11.753Z,1011.94
2017-01-11T03:10:52.394Z,1011.97
2017-01-11T03:11:33.052Z,1012.01
2017-01-11T03:12:13.680Z,1012.04
2017-01-11T03:12:54.418Z,1012.05
2017-01-11T03:13:35.184Z,1012.06
2017-01-11T03:14:15.895Z,1012.05
2017-01-11T03:14:56.530Z,1012.1
2017-01-11T03:15:37.230Z,1012.15
2017-01-11T03:16:17.888Z,1012.17
2017-01-11T03:16:58.519Z,1012.12
2017-01-11T03:17:39.210Z,1012.18
2017-01-11T03:18:19.895Z,1012.24
2017-01-11T03:19:00.553Z,1012.29
2017-01-11T03:19:41.178Z,1012.25
2017-01-11T03:20:21.896Z,1012.25
2017-01-11T03:21:02.572Z,1012.29
2017-01-11T03:21:43.202Z,1012.29
2017-01-11T03:22:23.964Z,1012.25
2017-01-11T03:23:04.621Z,1012.34
2017-01-11T03:23:45.249Z,1012.29
2017-01-11T03:24:25.937Z,1012.3
2017-01-11T03:25:06.572Z,1012.39
2017-01-11T03:25:47.201Z,1012.37
2017-01-11T03:26:27.904Z,1012.42
2017-01-11T03:27:08.613Z,1012.4
2017-01-11T03:27:49.303Z,1012.47
2017-01-11T03:28:29.940Z,1012.45
2017-01-11T03:29:10.688Z,1012.49
2017-01-11T03:29:51.351Z,1012.48
2017-01-11T03:30:31.980Z,1012.47
2017-01-11T03:31:12.665Z,1012.46
2017-01-11T03:31:53.301Z,1012.53
2017-01-11T03:32:33.940Z,1012.54
2017-01-11T03:33:14.646Z,1012.56
2017-01-11T03:33:55.321Z,1012.54
2017-01-11T03:34:35.999Z,1012.51
2017-01-11T03:35:16.645Z,1012.49
2017-01-11T03:35:57.270Z,1012.46
2017-01-11T03:36:38.006Z,1012.44
2017-01-11T03:37:18.633Z,1012.47
2017-01-11T03:37:59.330Z,1012.47
2017-01-11T03:38:40.006Z,1012.48
2017-01-11T03:39:20.634Z,1012.47
2017-01-11T03:40:01.332Z,1012.45
2017-01-11T03:40:41.956Z,1012.47
2017-01-11T03:41:22.582Z,1012.42
2017-01-11T03:42:03.291Z,1012.4
2017-01-11T03:42:43.925Z,1012.38
2017-01-11T03:43:24.634Z,1012.37
2017-01-11T03:44:05.219Z,1012.41
2017-01-11T03:44:45.904Z,1012.4
2017-01-11T03:45:26.579Z,1012.39
2017-01-11T03:46:07.226Z,1012.39
2017-01-11T03:46:47.948Z,1012.34
2017-01-11T03:47:28.619Z,1012.33
2017-01-11T03:48:09.248Z,1012.29
2017-01-11T03:48:49.907Z,1012.34
2017-01-11T03:49:30.574Z,1012.35
2017-01-11T03:50:11.207Z,1012.38
2017-01-11T03:50:51.904Z,1012.36
2017-01-11T03:51:32.589Z,1012.35
2017-01-11T03:52:13.243Z,1012.37
2017-01-11T03:52:53.926Z,1012.39
2017-01-11T03:53:34.558Z,1012.34
2017-01-11T03:54:15.270Z,1012.36
2017-01-11T03:54:55.892Z,1012.32
2017-01-11T03:55:36.596Z,1012.38
2017-01-11T03:56:17.285Z,1012.32
2017-01-11T03:56:57.916Z,1012.37
2017-01-11T03:57:38.634Z,1012.37
2017-01-11T03:58:19.298Z,1012.35
2017-01-11T03:59:00.031Z,1012.32
2017-01-11T03:59:40.617Z,1012.33
2017-01-11T04:00:21.269Z,1012.32
2017-01-11T04:01:01.975Z,1012.28
2017-01-11T04:01:42.625Z,1012.28
2017-01-11T04:02:23.339Z,1012.25
2017-01-11T04:03:04.006Z,1012.26
2017-01-11T04:03:44.643Z,1012.24
2017-01-11T04:04:25.412Z,1012.24
2017-01-11T04:05:06.124Z,1012.23
2017-01-11T04:05:46.787Z,1012.23
2017-01-11T04:06:27.415Z,1012.25
2017-01-11T04:07:08.205Z,1012.25
2017-01-11T04:07:48.930Z,1012.3
2017-01-11T04:08:29.604Z,1012.27
2017-01-11T04:09:10.195Z,1012.27
2017-01-11T04:09:50.828Z,1012.26
2017-01-11T04:10:31.449Z,1012.16
2017-01-11T04:11:12.129Z,1012.23
2017-01-11T04:11:52.839Z,1012.15
2017-01-11T04:12:33.519Z,1012.16
2017-01-11T04:13:14.141Z,1012.2
2017-01-11T04:13:54.765Z,1012.19
2017-01-11T04:14:35.448Z,1012.15
2017-01-11T04:15:16.086Z,1012.22
2017-01-11T04:15:56.786Z,1012.2
2017-01-11T04:16:37.522Z,1012.2
2017-01-11T04:17:18.152Z,1012.2
2017-01-11T04:17:58.814Z,1012.16
2017-01-11T04:18:39.439Z,1012.19
2017-01-11T04:19:20.070Z,1012.13
2017-01-11T04:20:00.743Z,1012.17
2017-01-11T04:20:41.407Z,1012.17
2017-01-11T04:21:22.057Z,1012.24
2017-01-11T04:22:02.703Z,1012.2
2017-01-11T04:22:43.415Z,1012.23
2017-01-11T04:23:24.103Z,1012.24
2017-01-11T04:24:04.725Z,1012.22
2017-01-11T04:24:45.448Z,1012.28
2017-01-11T04:25:26.115Z,1012.19
2017-01-11T04:26:06.751Z,1012.25
2017-01-11T04:26:47.421Z,1012.23
2017-01-11T04:27:28.076Z,1012.23
2017-01-11T04:28:08.706Z,1012.22
2017-01-11T04:28:49.405Z,1012.31
2017-01-11T04:29:30.082Z,1012.3
2017-01-11T04:30:10.762Z,1012.29
2017-01-11T04:30:51.352Z,1012.31
2017-01-11T04:31:32.095Z,1012.29
2017-01-11T04:32:12.818Z,1012.29
2017-01-11T04:32:53.449Z,1012.3
2017-01-11T04:33:34.138Z,1012.34
2017-01-11T04:34:14.771Z,1012.29
2017-01-11T04:34:55.403Z,1012.35
2017-01-11T04:35:36.072Z,1012.29
2017-01-11T04:36:16.729Z,1012.31
2017-01-11T04:36:57.357Z,1012.36
2017-01-11T04:37:38.062Z,1012.33
2017-01-11T04:38:18.734Z,1012.36
2017-01-11T04:38:59.390Z,1012.35
2017-01-11T04:39:40.034Z,1012.36
2017-01-11T04:40:20.695Z,1012.34
2017-01-11T04:41:01.365Z,1012.33
2017-01-11T04:41:42.012Z,1012.28
2017-01-11T04:42:22.645Z,1012.29
2017-01-11T04:43:03.341Z,1012.28
2017-01-11T04:43:43.968Z,1012.26
2017-01-11T04:44:24.690Z,1012.25
2017-01-11T04:45:05.354Z,1012.24
2017-01-11T04:45:46.000Z,1012.25
2017-01-11T04:46:26.710Z,1012.28
2017-01-11T04:47:07.332Z,1012.3
2017-01-11T04:47:47.961Z,1012.29
2017-01-11T04:48:28.682Z,1012.32
2017-01-11T04:49:09.346Z,1012.3
2017-01-11T04:49:50.019Z,1012.34
2017-01-11T04:50:30.662Z,1012.33
2017-01-11T04:51:11.295Z,1012.35
2017-01-11T04:51:51.992Z,1012.33
2017-01-11T04:52:32.623Z,1012.33
2017-01-11T04:53:13.361Z,1012.33
2017-01-11T04:53:53.997Z,1012.32
2017-01-11T04:54:34.621Z,1012.35
2017-01-11T04:55:15.290Z,1012.37
2017-01-11T04:55:55.997Z,1012.35
2017-01-11T04:56:36.625Z,1012.35
2017-01-11T04:57:17.324Z,1012.39
2017-01-11T04:57:57.961Z,1012.38
2017-01-11T04:58:38.682Z,1012.34
2017-01-11T04:59:19.320Z,1012.37
2017-01-11T05:00:00.004Z,1012.35
2017-01-11T05:00:40.652Z,1012.38
2017-01-11T05:01:21.291Z,1012.36
2017-01-11T05:02:01.973Z,1012.45
2017-01-11T05:02:42.674Z,1012.43
2017-01-11T05:03:23.304Z,1012.5
2017-01-11T05:04:04.013Z,1012.46
2017-01-11T05:04:44.701Z,1012.48
2017-01-11T05:05:25.404Z,1012.51
2017-01-11T05:06:06.051Z,1012.47
2017-01-11T05:06:46.680Z,1012.51
2017-01-11T05:07:27.378Z,1012.54
2017-01-11T05:08:08.003Z,1012.55
2017-01-11T05:08:48.724Z,1012.55
2017-01-11T05:09:29.391Z,1012.62
2017-01-11T05:10:10.024Z,1012.58
2017-01-11T05:10:50.751Z,1012.53
2017-01-11T05:11:31.424Z,1012.51
2017-01-11T05:12:12.087Z,1012.54
2017-01-11T05:12:52.779Z,1012.56
2017-01-11T05:13:33.411Z,1012.6
2017-01-11T05:14:14.111Z,1012.53
2017-01-11T05:14:54.748Z,1012.57
2017-01-11T05:15:35.450Z,1012.57
2017-01-11T05:16:16.117Z,1012.48
2017-01-11T05:16:56.745Z,1012.51
2017-01-11T05:17:37.420Z,1012.52
2017-01-11T05:18:18.086Z,1012.47
2017-01-11T05:18:58.713Z,1012.46
2017-01-11T05:19:39.426Z,1012.51
2017-01-11T05:20:20.075Z,1012.48
2017-01-11T05:21:00.734Z,1012.51
2017-01-11T05:21:41.378Z,1012.52
2017-01-11T05:22:22.047Z,1012.49
2017-01-11T05:23:02.711Z,1012.48
2017-01-11T05:23:43.357Z,1012.6
2017-01-11T05:24:24.092Z,1012.64
2017-01-11T05:25:04.775Z,1012.5
2017-01-11T05:25:45.405Z,1012.57
2017-01-11T05:26:26.130Z,1012.66
2017-01-11T05:27:06.811Z,1012.54
2017-01-11T05:27:47.524Z,1012.57
2017-01-11T05:28:28.213Z,1012.59
2017-01-11T05:29:08.899Z,1012.54
2017-01-11T05:29:49.575Z,1012.49
2017-01-11T05:30:30.202Z,1012.55
2017-01-11T05:31:10.898Z,1012.51
2017-01-11T05:31:51.543Z,1012.58
2017-01-11T05:32:32.184Z,1012.59
2017-01-11T05:33:12.896Z,1012.47
2017-01-11T05:33:53.527Z,1012.5
2017-01-11T05:34:34.188Z,1012.51
2017-01-11T05:35:14.815Z,1012.5
2017-01-11T05:35:55.452Z,1012.51
2017-01-11T05:36:36.118Z,1012.54
2017-01-11T05:37:16.728Z,1012.52
2017-01-11T05:37:57.388Z,1012.62
2017-01-11T05:38:38.082Z,1012.58
2017-01-11T05:39:18.733Z,1012.56
2017-01-11T05:39:59.365Z,1012.5
2017-01-11T05:40:40.068Z,1012.53
2017-01-11T05:41:20.695Z,1012.53
2017-01-11T05:42:01.378Z,1012.66
2017-01-11T05:42:42.005Z,1012.51
2017-01-11T05:43:22.634Z,1012.51
2017-01-11T05:44:03.261Z,1012.57
2017-01-11T05:44:43.951Z,1012.57
2017-01-11T05:45:24.582Z,1012.67
2017-01-11T05:46:05.268Z,1012.59
2017-01-11T05:46:45.970Z,1012.63
2017-01-11T05:47:26.601Z,1012.66
2017-01-11T05:48:07.305Z,1012.61
2017-01-11T05:48:47.969Z,1012.61
2017-01-11T05:49:28.657Z,1012.62
2017-01-11T05:50:09.303Z,1012.58
2017-01-11T05:50:49.928Z,1012.61
2017-01-11T05:51:30.669Z,1012.51
2017-01-11T05:52:11.298Z,1012.56
2017-01-11T05:52:51.931Z,1012.56
2017-01-11T05:53:32.558Z,1012.52
2017-01-11T05:54:13.191Z,1012.55
2017-01-11T05:54:53.816Z,1012.49
2017-01-11T05:55:34.440Z,1012.62
2017-01-11T05:56:15.070Z,1012.54
2017-01-11T05:56:55.747Z,1012.55
2017-01-11T05:57:36.378Z,1012.52
2017-01-11T05:58:17.012Z,1012.54
2017-01-11T05:58:57.678Z,1012.53
2017-01-11T05:59:38.319Z,1012.51
2017-01-11T06:00:18.950Z,1012.56
2017-01-11T06:00:59.682Z,1012.49
2017-01-11T06:01:40.414Z,1012.57
2017-01-11T06:02:21.042Z,1012.51
2017-01-11T06:03:01.735Z,1012.56
2017-01-11T06:03:42.443Z,1012.46
2017-01-11T06:04:23.076Z,1012.51
2017-01-11T06:05:03.704Z,1012.46
2017-01-11T06:05:44.355Z,1012.5
2017-01-11T06:06:24.991Z,1012.44
2017-01-11T06:07:05.629Z,1012.57
2017-01-11T06:07:46.298Z,1012.53
2017-01-11T06:08:26.928Z,1012.44
2017-01-11T06:09:07.557Z,1012.5
2017-01-11T06:09:48.186Z,1012.48
2017-01-11T06:10:28.848Z,1012.48
2017-01-11T06:11:09.485Z,1012.56
2017-01-11T06:11:50.199Z,1012.52
2017-01-11T06:12:30.958Z,1012.59
2017-01-11T06:13:11.590Z,1012.6
2017-01-11T06:13:52.256Z,1012.66
2017-01-11T06:14:32.999Z,1012.56
2017-01-11T06:15:14.309Z,1012.62
2017-01-11T06:15:54.939Z,1012.57
2017-01-11T06:16:35.626Z,1012.57
2017-01-11T06:17:16.259Z,1012.6
2017-01-11T06:17:56.973Z,1012.49
2017-01-11T06:18:37.640Z,1012.47
2017-01-11T06:19:18.278Z,1012.52
2017-01-11T06:19:59.003Z,1012.6
2017-01-11T06:20:46.358Z,1012.53
2017-01-11T06:21:27.004Z,1012.53
2017-01-11T06:22:07.726Z,1012.51
2017-01-11T06:22:48.353Z,1012.61
2017-01-11T06:23:29.000Z,1012.54
2017-01-11T06:24:09.680Z,1012.59
2017-01-11T06:24:50.311Z,1012.6
2017-01-11T06:25:30.953Z,1012.61
2017-01-11T06:26:11.594Z,1012.56
2017-01-11T06:26:52.270Z,1012.66
2017-01-11T06:27:32.912Z,1012.65
2017-01-11T06:28:13.566Z,1012.63
2017-01-11T06:28:54.314Z,1012.68
2017-01-11T06:29:34.947Z,1012.7
2017-01-11T06:30:15.592Z,1012.78
2017-01-11T06:30:56.218Z,1012.72
2017-01-11T06:31:36.846Z,1012.78
2017-01-11T06:32:17.528Z,1012.82
2017-01-11T06:32:58.261Z,1012.72
2017-01-11T06:33:38.978Z,1012.75
2017-01-11T06:34:19.617Z,1012.76
2017-01-11T06:35:00.304Z,1012.74
2017-01-11T06:35:41.042Z,1012.82
2017-01-11T06:36:21.669Z,1012.7
2017-01-11T06:37:02.407Z,1012.75
2017-01-11T06:37:43.102Z,1012.74
2017-01-11T06:38:23.736Z,1012.74
2017-01-11T06:39:04.364Z,1012.72
2017-01-11T06:39:45.013Z,1012.69
2017-01-11T06:40:25.639Z,1012.67
2017-01-11T06:41:06.269Z,1012.59
2017-01-11T06:41:46.910Z,1012.72
2017-01-11T06:42:27.570Z,1012.72
2017-01-11T06:43:08.198Z,1012.68
2017-01-11T06:43:48.871Z,1012.67
2017-01-11T06:44:29.556Z,1012.58
2017-01-11T06:45:10.188Z,1012.77
2017-01-11T06:45:50.876Z,1012.72
2017-01-11T06:46:31.619Z,1012.65
2017-01-11T06:47:12.254Z,1012.68
2017-01-11T06:47:52.901Z,1012.69
2017-01-11T06:48:33.657Z,1012.73
2017-01-11T06:49:14.374Z,1012.66
2017-01-11T06:49:55.017Z,1012.69
2017-01-11T06:50:35.673Z,1012.61
2017-01-11T06:51:16.422Z,1012.74
2017-01-11T06:51:57.047Z,1012.82
2017-01-11T06:52:38.389Z,1012.84
2017-01-11T06:53:19.024Z,1012.73
2017-01-11T06:53:59.702Z,1012.77
2017-01-11T06:54:40.428Z,1012.74
2017-01-11T06:55:21.120Z,1012.72
2017-01-11T06:56:01.745Z,1012.71
2017-01-11T06:56:42.468Z,1012.76
2017-01-11T06:57:23.095Z,1012.82
2017-01-11T06:58:03.727Z,1012.88
2017-01-11T06:58:44.389Z,1012.79
2017-01-11T06:59:25.020Z,1012.88
2017-01-11T07:00:05.647Z,1012.86
2017-01-11T07:00:46.309Z,1013.04
2017-01-11T07:01:26.943Z,1012.99
2017-01-11T07:02:07.591Z,1012.86
2017-01-11T07:02:48.323Z,1012.9
2017-01-11T07:03:29.076Z,1012.9
2017-01-11T07:04:09.740Z,1013.01
2017-01-11T07:04:50.374Z,1013.09
2017-01-11T07:05:31.091Z,1012.99
2017-01-11T07:06:11.757Z,1013.03
2017-01-11T07:06:52.386Z,1013.04
2017-01-11T07:07:33.053Z,1013.01
2017-01-11T07:08:13.785Z,1013.08
2017-01-11T07:08:54.424Z,1013.06
2017-01-11T07:09:35.117Z,1013.19
2017-01-11T07:10:15.828Z,1013.11
2017-01-11T07:10:56.508Z,1013.2
2017-01-11T07:11:37.140Z,1013.19
2017-01-11T07:12:58.604Z,1013.13
2017-01-11T07:13:39.272Z,1013.2
2017-01-11T07:14:19.933Z,1013.16
2017-01-11T07:15:00.567Z,1013.14
2017-01-11T07:15:41.215Z,1013.24
2017-01-11T07:16:21.855Z,1013.24
2017-01-11T07:17:02.489Z,1013.26
2017-01-11T07:17:43.142Z,1013.29
2017-01-11T07:18:23.802Z,1013.3
2017-01-11T07:19:04.435Z,1013.39
2017-01-11T07:19:45.121Z,1013.31
2017-01-11T07:20:25.765Z,1013.33
2017-01-11T07:21:06.465Z,1013.26
2017-01-11T07:21:47.125Z,1013.31
2017-01-11T07:22:27.760Z,1013.32
2017-01-11T07:23:08.415Z,1013.26
2017-01-11T07:23:49.059Z,1013.35
2017-01-11T07:24:29.695Z,1013.37
2017-01-11T07:25:10.419Z,1013.3
2017-01-11T07:25:51.191Z,1013.33
2017-01-11T07:26:31.843Z,1013.3
2017-01-11T07:27:12.471Z,1013.41
2017-01-11T07:27:53.203Z,1013.37
2017-01-11T07:28:33.853Z,1013.29
2017-01-11T07:29:14.484Z,1013.37
2017-01-11T07:29:55.161Z,1013.38
2017-01-11T07:30:36.500Z,1013.33
2017-01-11T07:31:17.211Z,1013.32
2017-01-11T07:31:57.885Z,1013.37
2017-01-11T07:32:38.596Z,1013.46
2017-01-11T07:33:19.241Z,1013.4
2017-01-11T07:33:59.976Z,1013.42
2017-01-11T07:34:40.715Z,1013.48
2017-01-11T07:35:21.354Z,1013.45
2017-01-11T07:36:02.048Z,1013.46
2017-01-11T07:36:42.721Z,1013.45
2017-01-11T07:37:23.427Z,1013.46
2017-01-11T07:38:04.060Z,1013.47
2017-01-11T07:38:44.755Z,1013.59
2017-01-11T07:39:25.526Z,1013.5
2017-01-11T07:40:06.164Z,1013.61
2017-01-11T07:40:46.834Z,1013.54
2017-01-11T07:41:27.568Z,1013.55
2017-01-11T07:42:08.235Z,1013.55
2017-01-11T07:42:48.865Z,1013.55
2017-01-11T07:43:29.575Z,1013.56
2017-01-11T07:44:10.251Z,1013.55
2017-01-11T07:44:50.877Z,1013.56
2017-01-11T07:45:31.545Z,1013.58
2017-01-11T07:46:12.215Z,1013.52
2017-01-11T07:46:52.854Z,1013.6
2017-01-11T07:47:33.580Z,1013.57
2017-01-11T07:48:14.216Z,1013.62
2017-01-11T07:48:54.905Z,1013.57
2017-01-11T07:49:35.592Z,1013.6
2017-01-11T07:50:16.359Z,1013.65
2017-01-11T07:50:57.019Z,1013.65
2017-01-11T07:51:37.648Z,1013.68
2017-01-11T07:52:18.333Z,1013.76
2017-01-11T07:52:58.962Z,1013.74
2017-01-11T07:53:39.589Z,1013.79
2017-01-11T07:54:20.285Z,1013.71
2017-01-11T07:55:00.928Z,1013.77
2017-01-11T07:55:41.587Z,1013.73
2017-01-11T07:56:22.216Z,1013.71
2017-01-11T07:57:02.856Z,1013.74
2017-01-11T07:57:43.568Z,1013.75
2017-01-11T07:58:24.214Z,1013.82
2017-01-11T07:59:04.890Z,1013.78
2017-01-11T07:59:45.537Z,1013.75
2017-01-11T08:00:26.168Z,1013.75
2017-01-11T08:01:06.938Z,1013.86
2017-01-11T08:01:47.587Z,1013.84
2017-01-11T08:02:28.226Z,1013.75
2017-01-11T08:03:08.932Z,1013.84
2017-01-11T08:03:49.592Z,1013.82
2017-01-11T08:04:30.244Z,1013.83
2017-01-11T08:05:10.878Z,1013.84
2017-01-11T08:05:51.502Z,1013.83
2017-01-11T08:06:32.171Z,1013.91
2017-01-11T08:07:12.795Z,1013.88
2017-01-11T08:07:53.443Z,1013.93
2017-01-11T08:08:34.147Z,1013.91
2017-01-11T08:09:14.791Z,1013.91
2017-01-11T08:09:55.421Z,1013.97
2017-01-11T08:10:36.133Z,1013.96
2017-01-11T08:11:16.761Z,1013.98
2017-01-11T08:11:57.436Z,1014
2017-01-11T08:12:38.207Z,1014.04
2017-01-11T08:13:18.871Z,1014.07
2017-01-11T08:13:59.537Z,1014.11
2017-01-11T08:14:40.207Z,1014.14